createdAt,value
2023-09-29T00:00:44.231Z,7.10
2023-09-29T00:03:10.994Z,6.55
2023-09-29T00:05:37.541Z,7.38
2023-09-29T00:08:04.370Z,5.15
2023-09-29T00:10:31.194Z,5.47
2023-09-29T00:12:57.560Z,6.35
2023-09-29T00:15:23.942Z,10.82
2023-09-29T00:17:50.706Z,7.28
2023-09-29T00:20:26.735Z,5.60
2023-09-29T00:22:59.620Z,5.75
2023-09-29T00:25:26.715Z,8.68
2023-09-29T00:27:54.668Z,6.35
2023-09-29T00:30:21.346Z,10.55
2023-09-29T00:32:50.027Z,6.22
2023-09-29T00:35:29.464Z,6.45
2023-09-29T00:37:57.858Z,8.23
2023-09-29T00:40:24.825Z,7.68
2023-09-29T00:42:51.246Z,6.28
2023-09-29T00:45:21.153Z,7.55
2023-09-29T00:47:51.266Z,6.75
2023-09-29T00:50:20.056Z,6.00
2023-09-29T00:52:50.377Z,5.45
2023-09-29T00:55:18.653Z,6.40
2023-09-29T00:57:52.111Z,6.55
2023-09-29T01:00:34.090Z,10.50
2023-09-29T01:03:14.101Z,6.35
2023-09-29T01:05:47.915Z,5.38
2023-09-29T01:08:20.332Z,5.32
2023-09-29T01:10:47.552Z,6.32
2023-09-29T01:13:14.092Z,6.60
2023-09-29T01:15:41.059Z,9.50
2023-09-29T01:18:09.406Z,8.95
2023-09-29T01:20:38.341Z,8.07
2023-09-29T01:23:06.138Z,8.02
2023-09-29T01:25:33.198Z,6.80
2023-09-29T01:27:59.732Z,7.63
2023-09-29T01:30:28.310Z,7.40
2023-09-29T01:32:58.267Z,7.20
2023-09-29T01:35:25.280Z,9.38
2023-09-29T01:37:54.638Z,5.88
2023-09-29T01:40:22.551Z,7.40
2023-09-29T01:42:50.264Z,9.02
2023-09-29T01:45:17.686Z,9.55
2023-09-29T01:47:48.961Z,6.32
2023-09-29T01:50:20.710Z,5.20
2023-09-29T01:52:48.552Z,5.78
2023-09-29T01:55:16.384Z,8.60
2023-09-29T01:57:43.916Z,5.80
2023-09-29T02:00:15.856Z,7.30
2023-09-29T02:02:45.010Z,8.07
2023-09-29T02:05:12.935Z,5.82
2023-09-29T02:07:40.447Z,7.70
2023-09-29T02:10:10.520Z,8.45
2023-09-29T02:12:47.446Z,8.88
2023-09-29T02:15:18.948Z,8.65
2023-09-29T02:17:46.029Z,8.65
2023-09-29T02:20:16.217Z,8.43
2023-09-29T02:22:43.139Z,7.97
2023-09-29T02:25:16.729Z,6.75
2023-09-29T02:27:43.844Z,6.70
2023-09-29T02:30:12.551Z,8.20
2023-09-29T02:32:40.262Z,7.32
2023-09-29T02:35:07.466Z,7.13
2023-09-29T02:37:33.809Z,6.95
2023-09-29T02:40:00.318Z,4.97
2023-09-29T02:42:26.787Z,5.82
2023-09-29T02:44:53.709Z,7.25
2023-09-29T02:47:20.266Z,6.03
2023-09-29T02:49:46.644Z,7.97
2023-09-29T02:52:13.643Z,9.60
2023-09-29T02:54:40.777Z,6.45
2023-09-29T02:57:08.525Z,7.90
2023-09-29T02:59:35.264Z,8.00
2023-09-29T03:02:05.912Z,4.82
2023-09-29T03:04:33.634Z,8.55
2023-09-29T03:07:00.441Z,4.68
2023-09-29T03:09:27.636Z,6.32
2023-09-29T03:11:54.483Z,8.27
2023-09-29T03:14:22.029Z,7.65
2023-09-29T03:16:48.454Z,5.72
2023-09-29T03:19:14.962Z,5.65
2023-09-29T03:21:41.321Z,9.90
2023-09-29T03:24:09.486Z,7.88
2023-09-29T03:26:35.884Z,7.90
2023-09-29T03:29:02.426Z,7.25
2023-09-29T03:31:28.887Z,6.95
2023-09-29T03:33:55.265Z,4.82
2023-09-29T03:36:21.761Z,6.60
2023-09-29T03:38:48.421Z,5.50
2023-09-29T03:41:14.808Z,5.70
2023-09-29T03:43:41.598Z,6.32
2023-09-29T03:46:25.290Z,5.00
2023-09-29T03:48:51.776Z,6.65
2023-09-29T03:51:24.994Z,8.95
2023-09-29T03:53:56.202Z,7.30
2023-09-29T03:56:24.317Z,6.60
2023-09-29T03:58:51.850Z,5.68
2023-09-29T04:01:18.402Z,7.20
2023-09-29T04:03:44.909Z,5.50
2023-09-29T04:06:11.604Z,9.23
2023-09-29T04:08:38.316Z,5.53
2023-09-29T04:11:05.071Z,7.63
2023-09-29T04:13:31.877Z,9.60
2023-09-29T04:16:00.204Z,7.60
2023-09-29T04:18:26.680Z,4.25
2023-09-29T04:20:53.229Z,8.43
2023-09-29T04:23:19.712Z,6.13
2023-09-29T04:25:47.399Z,8.73
2023-09-29T04:28:14.152Z,6.63
2023-09-29T04:30:40.534Z,9.45
2023-09-29T04:33:07.016Z,4.95
2023-09-29T04:35:33.484Z,8.93
2023-09-29T04:37:59.872Z,8.32
2023-09-29T04:40:26.273Z,5.68
2023-09-29T04:42:52.678Z,6.60
2023-09-29T04:45:19.122Z,7.25
2023-09-29T04:47:45.592Z,7.15
2023-09-29T04:50:12.437Z,6.85
2023-09-29T04:52:38.871Z,6.15
2023-09-29T04:55:05.631Z,8.80
2023-09-29T04:57:32.616Z,7.03
2023-09-29T04:59:59.070Z,7.28
2023-09-29T05:02:30.145Z,9.18
2023-09-29T05:04:57.875Z,8.25
2023-09-29T05:07:24.276Z,6.95
2023-09-29T05:09:50.627Z,4.85
2023-09-29T05:12:16.991Z,8.57
2023-09-29T05:14:43.573Z,5.95
2023-09-29T05:17:10.081Z,5.88
2023-09-29T05:19:36.491Z,5.18
2023-09-29T05:22:02.941Z,6.40
2023-09-29T05:24:29.322Z,9.23
2023-09-29T05:26:55.854Z,5.93
2023-09-29T05:29:22.686Z,5.70
2023-09-29T05:31:49.752Z,7.55
2023-09-29T05:34:16.096Z,5.35
2023-09-29T05:36:42.508Z,8.00
2023-09-29T05:39:08.968Z,8.68
2023-09-29T05:41:35.762Z,4.22
2023-09-29T05:44:02.220Z,6.90
2023-09-29T05:46:28.620Z,4.47
2023-09-29T05:48:55.964Z,5.15
2023-09-29T05:51:22.637Z,5.40
2023-09-29T05:53:49.042Z,7.43
2023-09-29T05:56:16.868Z,3.92
2023-09-29T05:58:43.324Z,7.45
2023-09-29T06:01:14.879Z,6.65
2023-09-29T06:03:44.645Z,7.22
2023-09-29T06:06:11.306Z,6.25
2023-09-29T06:08:53.996Z,6.95
2023-09-29T06:11:22.662Z,5.75
2023-09-29T06:13:49.156Z,7.55
2023-09-29T06:16:15.551Z,6.05
2023-09-29T06:18:41.972Z,6.72
2023-09-29T06:21:08.610Z,8.45
2023-09-29T06:23:35.067Z,5.07
2023-09-29T06:26:02.405Z,4.15
2023-09-29T06:28:29.136Z,5.50
2023-09-29T06:30:57.028Z,9.45
2023-09-29T06:33:24.339Z,7.57
2023-09-29T06:35:51.045Z,4.40
2023-09-29T06:38:17.451Z,4.72
2023-09-29T06:40:45.156Z,6.40
2023-09-29T06:43:11.841Z,4.55
2023-09-29T06:45:57.089Z,7.30
2023-09-29T06:48:24.885Z,4.68
2023-09-29T06:50:51.393Z,6.07
2023-09-29T06:53:17.756Z,4.55
2023-09-29T06:55:44.124Z,4.65
2023-09-29T06:58:10.606Z,5.05
2023-09-29T07:00:36.985Z,6.40
2023-09-29T07:03:03.618Z,4.80
2023-09-29T07:05:30.129Z,6.18
2023-09-29T07:07:56.932Z,6.78
2023-09-29T07:10:23.295Z,5.93
2023-09-29T07:12:50.478Z,6.82
2023-09-29T07:15:16.952Z,3.58
2023-09-29T07:17:43.425Z,3.55
2023-09-29T07:20:10.301Z,4.70
2023-09-29T07:22:37.197Z,5.15
2023-09-29T07:25:03.916Z,8.85
2023-09-29T07:27:32.067Z,3.63
2023-09-29T07:29:58.875Z,6.93
2023-09-29T07:32:27.220Z,4.65
2023-09-29T07:34:53.689Z,5.90
2023-09-29T07:37:20.064Z,5.55
2023-09-29T07:39:46.418Z,4.10
2023-09-29T07:42:13.613Z,6.30
2023-09-29T07:44:40.630Z,4.25
2023-09-29T07:47:07.333Z,4.45
2023-09-29T07:49:35.163Z,4.60
2023-09-29T07:52:01.537Z,5.28
2023-09-29T07:54:27.912Z,6.53
2023-09-29T07:56:54.337Z,3.20
2023-09-29T07:59:20.686Z,6.93
2023-09-29T08:01:50.517Z,6.10
2023-09-29T08:04:18.388Z,4.60
2023-09-29T08:06:45.437Z,3.60
2023-09-29T08:09:13.867Z,4.95
2023-09-29T08:11:42.263Z,6.00
2023-09-29T08:14:08.838Z,4.82
2023-09-29T08:16:35.848Z,4.93
2023-09-29T08:19:02.489Z,2.95
2023-09-29T08:21:28.936Z,5.05
2023-09-29T08:23:55.434Z,3.53
2023-09-29T08:26:22.055Z,5.90
2023-09-29T08:28:48.687Z,5.53
2023-09-29T08:31:16.610Z,7.05
2023-09-29T08:33:50.383Z,3.80
2023-09-29T08:36:18.169Z,5.60
2023-09-29T08:38:44.644Z,4.25
2023-09-29T08:41:11.324Z,5.35
2023-09-29T08:43:41.606Z,5.32
2023-09-29T08:46:10.467Z,5.55
2023-09-29T08:48:38.596Z,5.18
2023-09-29T08:51:06.529Z,5.60
2023-09-29T08:53:34.438Z,5.13
2023-09-29T08:56:05.440Z,6.28
2023-09-29T08:58:33.633Z,4.50
2023-09-29T09:01:00.340Z,4.80
2023-09-29T09:03:27.333Z,6.20
2023-09-29T09:05:56.430Z,5.85
2023-09-29T09:08:24.949Z,4.65
2023-09-29T09:10:59.757Z,4.95
2023-09-29T09:13:29.028Z,7.78
2023-09-29T09:15:56.774Z,6.05
2023-09-29T09:18:25.302Z,4.80
2023-09-29T09:20:54.074Z,5.97
2023-09-29T09:23:20.723Z,5.72
2023-09-29T09:25:47.822Z,6.32
2023-09-29T09:28:21.916Z,7.18
2023-09-29T09:33:22.531Z,6.10
2023-09-29T09:35:50.795Z,5.97
2023-09-29T09:38:17.311Z,6.20
2023-09-29T09:40:48.865Z,11.20
2023-09-29T09:43:15.711Z,5.45
2023-09-29T09:45:44.439Z,6.55
2023-09-29T09:48:17.459Z,6.15
2023-09-29T09:50:49.416Z,4.53
2023-09-29T09:53:19.896Z,4.75
2023-09-29T09:55:53.972Z,6.53
2023-09-29T09:58:24.072Z,7.15
2023-09-29T10:00:53.973Z,5.65
2023-09-29T10:03:21.781Z,6.57
2023-09-29T10:05:55.382Z,4.75
2023-09-29T10:08:34.024Z,5.05
2023-09-29T10:11:14.082Z,6.13
2023-09-29T10:13:43.448Z,4.10
2023-09-29T10:16:21.626Z,4.57
2023-09-29T10:19:00.413Z,7.72
2023-09-29T10:21:36.069Z,5.00
2023-09-29T10:24:07.672Z,4.00
2023-09-29T10:26:48.390Z,5.53
2023-09-29T10:29:26.044Z,6.45
2023-09-29T10:31:54.107Z,5.47
2023-09-29T10:34:25.533Z,5.05
2023-09-29T10:36:56.024Z,6.60
2023-09-29T10:39:27.572Z,2.92
2023-09-29T10:42:14.783Z,4.57
2023-09-29T10:44:54.761Z,3.63
2023-09-29T10:47:34.369Z,4.55
2023-09-29T10:50:05.098Z,4.60
2023-09-29T10:52:31.474Z,3.15
2023-09-29T10:54:59.938Z,4.70
2023-09-29T10:57:28.010Z,4.57
2023-09-29T11:00:00.852Z,4.00
2023-09-29T11:02:31.580Z,6.45
2023-09-29T11:05:00.324Z,4.78
2023-09-29T11:07:31.153Z,3.45
2023-09-29T11:10:00.582Z,2.67
2023-09-29T11:12:31.312Z,8.60
2023-09-29T11:15:10.851Z,8.45
2023-09-29T11:17:47.038Z,7.15
2023-09-29T11:20:26.392Z,6.90
2023-09-29T11:23:13.271Z,5.57
2023-09-29T11:25:50.135Z,6.97
2023-09-29T11:28:17.244Z,12.55
2023-09-29T11:30:45.037Z,9.32
2023-09-29T11:33:12.718Z,9.82
2023-09-29T11:35:40.006Z,14.43
2023-09-29T11:38:07.876Z,19.40
2023-09-29T11:40:34.993Z,14.55
2023-09-29T11:43:01.441Z,14.70
2023-09-29T11:45:27.922Z,17.15
2023-09-29T11:47:54.394Z,15.05
2023-09-29T11:50:20.803Z,14.48
2023-09-29T11:52:47.192Z,14.93
2023-09-29T11:55:14.499Z,17.20
2023-09-29T11:57:43.829Z,15.57
2023-09-29T12:00:11.912Z,15.00
2023-09-29T12:02:38.890Z,15.48
2023-09-29T12:05:07.133Z,15.02
2023-09-29T12:07:34.129Z,18.95
2023-09-29T12:10:00.948Z,17.45
2023-09-29T12:12:28.044Z,16.48
2023-09-29T12:14:54.517Z,18.75
2023-09-29T12:17:21.158Z,18.45
2023-09-29T12:19:48.156Z,16.77
2023-09-29T12:22:15.172Z,18.70
2023-09-29T12:24:41.630Z,19.05
2023-09-29T12:27:11.339Z,19.65
2023-09-29T12:29:38.423Z,21.83
2023-09-29T12:32:05.025Z,22.17
2023-09-29T12:34:33.729Z,22.42
2023-09-29T12:37:00.866Z,24.15
2023-09-29T12:39:27.449Z,27.10
2023-09-29T12:41:54.460Z,23.85
2023-09-29T12:44:20.899Z,28.77
2023-09-29T12:46:47.335Z,25.85
2023-09-29T12:49:13.816Z,23.83
2023-09-29T12:51:53.604Z,25.88
2023-09-29T12:54:26.299Z,25.40
2023-09-29T12:57:01.401Z,21.85
2023-09-29T12:59:30.649Z,23.17
2023-09-29T13:01:57.524Z,21.58
2023-09-29T13:04:27.522Z,23.10
2023-09-29T13:06:54.003Z,20.38
2023-09-29T13:09:22.895Z,19.90
2023-09-29T13:11:50.007Z,20.70
2023-09-29T13:14:16.451Z,18.58
2023-09-29T13:16:42.928Z,17.90
2023-09-29T13:19:09.435Z,17.60
2023-09-29T13:21:35.912Z,18.65
2023-09-29T13:24:02.866Z,16.40
2023-09-29T13:26:29.941Z,18.23
2023-09-29T13:28:56.357Z,18.45
2023-09-29T13:31:22.787Z,15.43
2023-09-29T13:33:51.768Z,16.02
2023-09-29T13:36:18.982Z,17.05
2023-09-29T13:38:45.989Z,17.95
2023-09-29T13:41:12.465Z,16.85
2023-09-29T13:43:40.142Z,19.05
2023-09-29T13:46:07.160Z,17.10
2023-09-29T13:48:33.749Z,14.85
2023-09-29T13:51:04.609Z,15.85
2023-09-29T13:53:30.987Z,16.25
2023-09-29T13:55:57.946Z,16.13
2023-09-29T13:58:25.294Z,16.27
2023-09-29T14:00:52.447Z,12.85
2023-09-29T14:03:19.360Z,14.13
2023-09-29T14:05:46.103Z,13.88
2023-09-29T14:08:12.547Z,11.52
2023-09-29T14:10:39.246Z,13.63
2023-09-29T14:13:05.870Z,13.57
2023-09-29T14:15:35.529Z,11.77
2023-09-29T14:18:02.123Z,11.63
2023-09-29T14:20:31.174Z,10.95
2023-09-29T14:22:58.588Z,11.73
2023-09-29T14:25:25.033Z,13.13
2023-09-29T14:27:51.522Z,11.77
2023-09-29T14:30:17.949Z,10.43
2023-09-29T14:32:44.355Z,9.02
2023-09-29T14:35:13.038Z,10.55
2023-09-29T14:37:40.799Z,9.30
2023-09-29T14:40:09.783Z,10.10
2023-09-29T14:42:36.172Z,9.15
2023-09-29T14:45:02.630Z,9.90
2023-09-29T14:47:29.040Z,7.90
2023-09-29T14:50:00.189Z,17.58
2023-09-29T14:52:26.674Z,12.98
2023-09-29T14:54:53.048Z,8.20
2023-09-29T14:57:21.475Z,12.43
2023-09-29T14:59:48.529Z,14.45
2023-09-29T15:02:14.888Z,8.32
2023-09-29T15:04:56.226Z,13.10
2023-09-29T15:07:23.483Z,7.07
2023-09-29T15:09:49.868Z,7.90
2023-09-29T15:12:16.308Z,10.70
2023-09-29T15:14:42.984Z,7.68
2023-09-29T15:17:09.355Z,13.07
2023-09-29T15:19:43.610Z,8.38
2023-09-29T15:22:11.140Z,11.50
2023-09-29T15:24:40.643Z,9.05
2023-09-29T15:27:09.907Z,10.25
2023-09-29T15:29:36.297Z,9.15
2023-09-29T15:32:02.650Z,10.70
2023-09-29T15:34:31.104Z,7.65
2023-09-29T15:36:57.608Z,9.35
2023-09-29T15:39:24.163Z,9.25
2023-09-29T15:41:50.628Z,9.32
2023-09-29T15:44:17.047Z,10.50
2023-09-29T15:46:45.614Z,7.88
2023-09-29T15:49:13.698Z,10.93
2023-09-29T15:51:40.166Z,11.77
2023-09-29T15:54:06.638Z,10.60
2023-09-29T15:56:33.218Z,10.27
2023-09-29T15:58:59.633Z,8.80
2023-09-29T16:01:26.065Z,10.88
2023-09-29T16:03:52.612Z,9.88
2023-09-29T16:06:19.503Z,10.77
2023-09-29T16:08:45.933Z,7.90
2023-09-29T16:11:12.997Z,8.13
2023-09-29T16:13:39.393Z,6.30
2023-09-29T16:16:08.037Z,3.55
2023-09-29T16:18:35.521Z,2.55
2023-09-29T16:21:03.009Z,4.50
2023-09-29T16:23:29.549Z,2.83
2023-09-29T16:25:57.388Z,3.28
2023-09-29T16:28:23.943Z,2.55
2023-09-29T16:30:51.756Z,5.65
2023-09-29T16:33:18.495Z,2.25
2023-09-29T16:35:44.974Z,2.50
2023-09-29T16:38:11.418Z,1.73
2023-09-29T16:40:39.220Z,3.75
2023-09-29T16:43:05.631Z,1.30
2023-09-29T16:45:32.232Z,2.20
2023-09-29T16:47:58.800Z,2.58
2023-09-29T16:50:25.273Z,2.53
2023-09-29T16:52:51.669Z,4.13
2023-09-29T16:55:18.808Z,3.85
2023-09-29T16:57:45.160Z,5.97
2023-09-29T17:00:12.326Z,3.63
2023-09-29T17:02:40.060Z,4.38
2023-09-29T17:05:07.377Z,5.45
2023-09-29T17:07:35.383Z,4.65
2023-09-29T17:10:01.949Z,8.05
2023-09-29T17:12:28.351Z,7.18
2023-09-29T17:14:55.370Z,9.57
2023-09-29T17:17:21.847Z,6.35
2023-09-29T17:19:50.551Z,7.78
2023-09-29T17:22:17.998Z,5.97
2023-09-29T17:24:44.658Z,9.07
2023-09-29T17:27:11.373Z,7.40
2023-09-29T17:29:37.753Z,5.82
2023-09-29T17:32:04.534Z,7.47
2023-09-29T17:34:32.430Z,5.32
2023-09-29T17:36:58.807Z,7.50
2023-09-29T17:39:25.240Z,4.53
2023-09-29T17:41:51.692Z,8.40
2023-09-29T17:44:18.167Z,8.20
2023-09-29T17:46:45.133Z,6.68
2023-09-29T17:49:11.802Z,9.18
2023-09-29T17:51:38.849Z,6.32
2023-09-29T17:54:05.293Z,6.55
2023-09-29T17:56:31.718Z,3.40
2023-09-29T17:59:00.919Z,6.25
2023-09-29T18:01:27.303Z,6.03
2023-09-29T18:03:53.767Z,9.35
2023-09-29T18:06:26.195Z,4.60
2023-09-29T18:08:52.923Z,9.82
2023-09-29T18:11:19.304Z,8.38
2023-09-29T18:13:45.680Z,8.57
2023-09-29T18:16:12.106Z,9.32
2023-09-29T18:18:38.758Z,10.60
2023-09-29T18:21:05.342Z,6.78
2023-09-29T18:23:31.818Z,8.65
2023-09-29T18:25:58.424Z,11.05
2023-09-29T18:28:25.218Z,8.02
2023-09-29T18:30:51.986Z,7.88
2023-09-29T18:33:18.486Z,7.93
2023-09-29T18:35:45.337Z,10.07
2023-09-29T18:38:11.725Z,7.72
2023-09-29T18:40:38.944Z,8.05
2023-09-29T18:43:05.769Z,10.05
2023-09-29T18:45:34.838Z,9.60
2023-09-29T18:48:01.438Z,7.93
2023-09-29T18:50:28.242Z,8.23
2023-09-29T18:52:54.657Z,8.50
2023-09-29T18:55:22.244Z,12.15
2023-09-29T18:57:48.831Z,8.93
2023-09-29T19:00:15.432Z,9.55
2023-09-29T19:02:44.367Z,8.32
2023-09-29T19:05:10.919Z,9.25
2023-09-29T19:07:37.307Z,8.57
2023-09-29T19:10:04.018Z,7.47
2023-09-29T19:12:30.536Z,10.50
2023-09-29T19:14:56.942Z,9.10
2023-09-29T19:17:24.356Z,9.73
2023-09-29T19:19:50.776Z,9.88
2023-09-29T19:22:17.467Z,7.20
2023-09-29T19:24:44.066Z,9.52
2023-09-29T19:27:10.785Z,9.60
2023-09-29T19:29:37.911Z,8.50
2023-09-29T19:32:04.733Z,6.53
2023-09-29T19:34:31.118Z,6.80
2023-09-29T19:36:57.800Z,7.97
2023-09-29T19:39:25.057Z,6.78
2023-09-29T19:41:51.967Z,10.65
2023-09-29T19:44:18.400Z,7.47
2023-09-29T19:46:44.818Z,6.97
2023-09-29T19:49:11.171Z,8.10
2023-09-29T19:51:38.172Z,5.50
2023-09-29T19:54:04.823Z,9.93
2023-09-29T19:56:34.683Z,8.25
2023-09-29T19:59:02.520Z,9.60
2023-09-29T20:01:29.060Z,6.00
2023-09-29T20:03:56.083Z,9.45
2023-09-29T20:06:23.311Z,4.90
2023-09-29T20:08:51.644Z,7.55
2023-09-29T20:11:20.846Z,10.00
2023-09-29T20:13:47.274Z,9.35
2023-09-29T20:16:16.879Z,9.85
2023-09-29T20:18:43.573Z,10.35
2023-09-29T20:21:10.092Z,6.40
2023-09-29T20:23:37.308Z,7.97
2023-09-29T20:26:03.890Z,10.45
2023-09-29T20:28:31.890Z,8.35
2023-09-29T20:30:58.306Z,6.10
2023-09-29T20:33:24.831Z,8.98
2023-09-29T20:35:51.280Z,5.63
2023-09-29T20:38:17.684Z,6.05
2023-09-29T20:40:44.502Z,6.75
2023-09-29T20:43:17.114Z,5.95
2023-09-29T20:45:47.915Z,6.00
2023-09-29T20:48:15.711Z,8.65
2023-09-29T20:50:42.729Z,8.13
2023-09-29T20:53:16.388Z,6.50
2023-09-29T20:55:42.783Z,6.20
2023-09-29T20:58:09.202Z,6.28
2023-09-29T21:00:35.740Z,6.50
2023-09-29T21:03:03.997Z,6.80
2023-09-29T21:05:31.001Z,7.22
2023-09-29T21:07:57.694Z,9.23
2023-09-29T21:10:24.799Z,8.88
2023-09-29T21:12:51.190Z,9.20
2023-09-29T21:15:17.819Z,6.10
2023-09-29T21:17:44.355Z,7.03
2023-09-29T21:20:12.242Z,5.53
2023-09-29T21:22:43.600Z,5.15
2023-09-29T21:25:12.505Z,8.60
2023-09-29T21:27:39.970Z,6.35
2023-09-29T21:30:09.553Z,9.02
2023-09-29T21:32:36.623Z,7.15
2023-09-29T21:35:04.262Z,5.45
2023-09-29T21:37:30.648Z,6.80
2023-09-29T21:39:57.127Z,8.32
2023-09-29T21:42:24.084Z,4.35
2023-09-29T21:44:50.526Z,5.40
2023-09-29T21:47:16.884Z,8.27
2023-09-29T21:49:43.381Z,6.30
2023-09-29T21:52:09.746Z,5.07
2023-09-29T21:54:36.195Z,8.95
2023-09-29T21:57:02.689Z,7.95
2023-09-29T21:59:31.503Z,7.65
2023-09-29T22:01:57.922Z,9.30
2023-09-29T22:04:24.344Z,6.13
2023-09-29T22:06:50.812Z,5.75
2023-09-29T22:09:17.510Z,8.43
2023-09-29T22:11:44.820Z,5.65
2023-09-29T22:14:11.213Z,5.65
2023-09-29T22:16:37.695Z,5.90
2023-09-29T22:19:06.359Z,9.60
2023-09-29T22:21:32.854Z,7.97
2023-09-29T22:23:59.241Z,9.82
2023-09-29T22:26:29.150Z,4.55
2023-09-29T22:28:57.211Z,4.78
2023-09-29T22:31:23.592Z,7.47
2023-09-29T22:33:50.156Z,5.15
2023-09-29T22:36:16.703Z,7.82
2023-09-29T22:38:43.290Z,9.65
2023-09-29T22:41:09.696Z,5.05
2023-09-29T22:43:36.929Z,6.57
2023-09-29T22:46:04.434Z,7.45
2023-09-29T22:48:31.232Z,7.70
2023-09-29T22:50:58.111Z,9.15
2023-09-29T22:53:27.726Z,6.57
2023-09-29T22:55:58.227Z,8.43
2023-09-29T22:58:29.880Z,5.55
2023-09-29T23:01:00.588Z,7.18
2023-09-29T23:03:30.084Z,9.80
2023-09-29T23:05:57.466Z,7.32
2023-09-29T23:08:23.953Z,8.82
2023-09-29T23:10:51.392Z,6.93
2023-09-29T23:13:19.618Z,8.73
2023-09-29T23:15:46.530Z,6.65
2023-09-29T23:18:14.001Z,9.15
2023-09-29T23:20:41.381Z,10.68
2023-09-29T23:23:08.193Z,5.70
2023-09-29T23:25:35.120Z,7.13
2023-09-29T23:28:03.623Z,6.47
2023-09-29T23:30:31.283Z,8.15
2023-09-29T23:32:59.577Z,7.25
2023-09-29T23:35:26.629Z,5.47
2023-09-29T23:37:52.986Z,5.97
2023-09-29T23:40:19.464Z,8.15
2023-09-29T23:42:46.262Z,5.22
2023-09-29T23:45:12.805Z,7.93
2023-09-29T23:47:39.438Z,8.05
2023-09-29T23:50:06.679Z,9.13
2023-09-29T23:52:34.013Z,8.98
2023-09-29T23:55:00.731Z,7.10
2023-09-29T23:57:27.218Z,11.70
2023-09-29T23:59:54.404Z,8.60
